This is the latest recevied weather packets stored in our database for station/object N2XP-2. If no packets are shown the sender has not sent any weather packets the latest 10 day(s).
| Time | Temp. | Humidity | Pressure | Rain* | Wind** | Luminosity | Snow |
|---|---|---|---|---|---|---|---|
| 1777574478 | 14.44° C | 90% | 1007.2 hPa | 0 mm | 0 m/s | - | - |
| 1777574398 | 16.11° C | 85% | 1006.7 hPa | 0 mm | 0 m/s | - | - |
| 1777574186 | 16.11° C | 86% | 1006.9 hPa | 0 mm | 0.89 m/s, 177° | - | - |
| 1777574099 | 16.11° C | 86% | 1006.9 hPa | 0 mm | 0.89 m/s, 177° | - | - |
| 1777573923 | 15.56° C | 88% | 1006.8 hPa | 0 mm | 0 m/s | - | - |
| 1777573796 | 15.56° C | 88% | 1006.8 hPa | 0 mm | 0 m/s | - | - |
| 1777573557 | 15° C | 89% | 1006.9 hPa | 0 mm | 1.34 m/s, 302° | - | - |
| 1777573497 | 15° C | 89% | 1006.9 hPa | 0 mm | 1.34 m/s, 302° | - | - |
| 1777573256 | 14.44° C | 90% | 1007.1 hPa | 0 mm | 0 m/s | - | - |
| 1777573198 | 14.44° C | 90% | 1007.1 hPa | 0 mm | 0 m/s | - | - |
| 1777573009 | 14.44° C | 89% | 1007.2 hPa | 0 mm | 0 m/s | - | - |
| 1777572965 | 14.44° C | 89% | 1007.2 hPa | 0 mm | 0 m/s | - | - |
| 1777572895 | 14.44° C | 89% | 1007.2 hPa | 0 mm | 0 m/s | - | - |
| 1777572688 | 14.44° C | 90% | 1007.2 hPa | 0 mm | 0 m/s | - | - |
| 1777572596 | 14.44° C | 90% | 1007.2 hPa | 0 mm | 0 m/s | - | - |
| 1777572571 | 13.89° C | 90% | 1007.2 hPa | 0.25 mm | 0 m/s | - | - |
| 1777572562 | 13.89° C | 90% | 1007.1 hPa | 0.25 mm | 0 m/s | - | - |
| 1777572077 | 14.44° C | 90% | 1007.1 hPa | 0 mm | 0 m/s | - | - |
| 1777571994 | 14.44° C | 90% | 1007.1 hPa | 0 mm | 0 m/s | - | - |
| 1777571793 | 14.44° C | 90% | 1007.1 hPa | 0 mm | 0 m/s | - | - |
| 1777571695 | 14.44° C | 90% | 1007.1 hPa | 0 mm | 0 m/s | - | - |
| 1777571544 | 14.44° C | 90% | 1007.1 hPa | 0 mm | 0 m/s | - | - |
| 1777571396 | 14.44° C | 90% | 1007.1 hPa | 0 mm | 0 m/s | - | - |
| 1777571159 | 13.89° C | 90% | 1007.2 hPa | 0.25 mm | 0 m/s | - | - |
| 1777571093 | 13.89° C | 90% | 1007.2 hPa | 0.25 mm | 0 m/s | - | - |
* Rain latest hour (hover to see other rain measurements)
** Current wind speed in m/s (hover to see current wind gust speed)